»·PEaware :: ASA877 KSFO-KSNA

ASA877 :: KSFO-KSNA

FLIGHT INFORMATION

Flight Status: Arrived
Operator:
Alaska Airlines
More flights by this operator :: More flights under this callsign
Pilot: Anthony T. (15846)
Aircraft: BOEING 737-800
(B738)
More flights by this aircraft type
Origin: KSFO San Francisco Intl
United States
Destination: KSNA John Wayne-Orange Co
United States
More flights between these airports :: More routes between these airports
Route: +SSTIK3 CISKO RDHOT OHSEA1
File this flight plan on PilotEdge
Remarks:
Altitude:
(Current/Filed)
27,000ft
Speed:
(Current/Filed)
315kts
Departed: 15-May-18 07:11 PM
Arrived: 15-May-18 08:12 PM
Distance/Time
Traveled:
323nm/1:01
Distance/Time
To Go:
Arrived

Flight Plot

Page will automatically refresh every two minutes.

Flight plan parsing failed; only flown route is shown


Map Options




Map Legend


Flown Route
Filed Route
Departure Airport
Arrival Airport
Navaid (VOR, NDB)
Fix

Horizontal Profiles

Position Reports

Time Latitude Longitude Heading Altitude Ground
Speed
15-May-18 18:55 37.611683 -122.385971 34 31ft 0kts
15-May-18 18:56 37.611683 -122.385971 34 31ft 0kts
15-May-18 18:57 37.611683 -122.385971 34 31ft 0kts
15-May-18 18:58 37.611683 -122.385971 34 31ft 0kts
15-May-18 18:59 37.611683 -122.385971 34 31ft 0kts
15-May-18 19:00 37.611683 -122.385971 34 31ft 0kts
15-May-18 19:01 37.611683 -122.385971 34 31ft 0kts
15-May-18 19:02 37.611683 -122.385971 34 31ft 0kts
15-May-18 19:03 37.611523 -122.386781 125 31ft 0kts
15-May-18 19:04 37.611523 -122.386781 125 31ft 0kts
15-May-18 19:05 37.610818 -122.385175 116 31ft 0kts
15-May-18 19:06 37.609805 -122.384265 183 31ft 9kts
15-May-18 19:07 37.608935 -122.383607 123 31ft 0kts
15-May-18 19:08 37.608935 -122.383607 123 31ft 0kts
15-May-18 19:09 37.608935 -122.383607 123 31ft 0kts
15-May-18 19:10 37.609007 -122.382234 33 29ft 0kts
15-May-18 19:11 37.629182 -122.368593 25 435ft 217kts
15-May-18 19:12 37.694063 -122.370385 319 4000ft 263kts
15-May-18 19:13 37.686880 -122.444945 202 7508ft 264kts
15-May-18 19:14 37.612868 -122.456910 184 11048ft 279kts
15-May-18 19:15 37.534643 -122.468052 184 14463ft 294kts
15-May-18 19:16 37.456138 -122.430602 140 17499ft 340kts
15-May-18 19:17 37.385725 -122.348473 138 20506ft 355kts
15-May-18 19:18 37.312927 -122.261022 138 23509ft 373kts
15-May-18 19:19 37.236699 -122.169471 139 26503ft 387kts
15-May-18 19:20 37.153478 -122.069906 139 27055ft 453kts
15-May-18 19:21 37.058941 -121.956891 140 27063ft 473kts
15-May-18 19:22 36.963466 -121.843325 142 27067ft 475kts
15-May-18 19:23 36.867583 -121.729873 142 27074ft 476kts
15-May-18 19:24 36.771569 -121.616528 142 27066ft 476kts
15-May-18 19:25 36.675294 -121.503283 142 27065ft 477kts
15-May-18 19:26 36.579024 -121.390452 142 27066ft 476kts
15-May-18 19:27 36.482923 -121.278228 142 27061ft 476kts
15-May-18 19:28 36.386359 -121.166048 144 27054ft 476kts
15-May-18 19:29 36.284449 -121.060883 146 27042ft 481kts
15-May-18 19:30 36.180861 -120.954870 146 27026ft 486kts
15-May-18 19:31 36.076628 -120.848579 146 27024ft 486kts
15-May-18 19:32 35.972477 -120.742785 146 27024ft 486kts
15-May-18 19:33 35.868544 -120.637513 146 27032ft 486kts
15-May-18 19:34 35.764007 -120.532064 146 27033ft 486kts
15-May-18 19:35 35.659640 -120.427219 146 27033ft 486kts
15-May-18 19:36 35.555224 -120.322642 146 27026ft 485kts
15-May-18 19:37 35.450646 -120.218003 146 27034ft 485kts
15-May-18 19:38 35.363570 -120.131148 146 27052ft 485kts
15-May-18 19:39 35.258970 -120.027145 146 27060ft 485kts
15-May-18 19:40 35.155124 -119.924244 146 27050ft 485kts
15-May-18 19:41 35.051771 -119.818493 142 27043ft 489kts
15-May-18 19:42 34.954306 -119.701771 141 27022ft 493kts
15-May-18 19:43 34.856521 -119.584091 141 27042ft 496kts
15-May-18 19:44 34.758753 -119.466833 141 27038ft 496kts
15-May-18 19:45 34.660465 -119.349346 142 27044ft 496kts
15-May-18 19:46 34.562880 -119.232134 141 27033ft 495kts
15-May-18 19:47 34.466392 -119.117823 142 26288ft 496kts
15-May-18 19:48 34.366945 -119.002850 142 25033ft 498kts
15-May-18 19:49 34.266215 -118.888126 142 24291ft 504kts
15-May-18 19:50 34.147423 -118.814155 165 22192ft 456kts
15-May-18 19:51 34.034684 -118.769160 166 19915ft 417kts
15-May-18 19:52 33.925973 -118.727060 165 17390ft 404kts
15-May-18 19:53 33.821000 -118.686489 165 14889ft 389kts
15-May-18 19:54 33.720199 -118.648616 166 13004ft 364kts
15-May-18 19:55 33.634865 -118.594152 124 11981ft 369kts
15-May-18 19:56 33.633994 -118.474838 81 9476ft 362kts
15-May-18 19:57 33.650975 -118.358030 81 6990ft 350kts
15-May-18 19:58 33.666187 -118.249070 81 5007ft 294kts
15-May-18 19:59 33.678564 -118.155964 81 4994ft 283kts
15-May-18 20:00 33.689199 -118.072229 81 4990ft 237kts
15-May-18 20:01 33.698505 -117.998695 81 4991ft 215kts
15-May-18 20:02 33.714710 -117.932377 62 4994ft 216kts
15-May-18 20:03 33.758436 -117.891026 30 4404ft 213kts
15-May-18 20:04 33.806068 -117.855125 30 3104ft 201kts
15-May-18 20:05 33.851391 -117.820938 30 3085ft 192kts
15-May-18 20:06 33.873247 -117.771650 99 3082ft 198kts
15-May-18 20:07 33.833598 -117.764344 220 3091ft 171kts
15-May-18 20:08 33.793611 -117.793969 210 2536ft 169kts
15-May-18 20:09 33.756988 -117.817249 209 1745ft 150kts
15-May-18 20:10 33.720303 -117.840546 209 943ft 148kts
15-May-18 20:11 33.684500 -117.863214 209 163ft 140kts
15-May-18 20:12 33.669532 -117.872017 150 64ft 12kts
15-May-18 20:13 33.669233 -117.871714 128 64ft 0kts
15-May-18 20:14 33.670514 -117.869491 40 64ft 17kts
15-May-18 20:15 33.675270 -117.865748 29 64ft 16kts

Navigation Log

Ident Type
Flight plan parsing failed, navigation log unavailable